Time;durP1;ratioP1;P1;durP2;ratioP2;P2;SDS_P1;SDS_P2;PMS_P1;PMS_P2;Temp;Humidity;BMP_temperature;BMP_pressure;BME280_temperature;BME280_humidity;BME280_pressure;Samples;Min_cycle;Max_cycle;Signal;HPM_P1;HPM_P2
2023/07/24 00:01:34;;;;;;;1.98;1.30;;;19.80;99.90;;;20.13;100.00;100022.81;5267521;28;20135;-48
2023/07/24 00:04:07;;;;;;;1.95;1.20;;;19.70;99.90;;;20.10;100.00;100015.81;5259033;28;20051;-49
2023/07/24 00:06:42;;;;;;;1.83;1.25;;;19.70;99.90;;;20.08;100.00;100008.78;5244982;28;20108;-48
2023/07/24 00:09:15;;;;;;;3.15;1.70;;;19.70;99.90;;;20.04;100.00;100016.78;5243996;28;20443;-49
2023/07/24 00:11:48;;;;;;;2.33;1.40;;;19.70;99.90;;;20.02;100.00;100015.09;5244728;28;20052;-49
2023/07/24 00:14:21;;;;;;;1.60;1.30;;;19.70;99.90;;;20.02;100.00;100017.72;5244501;28;20429;-49
2023/07/24 00:16:56;;;;;;;2.08;1.40;;;19.60;99.90;;;20.01;100.00;100019.47;5244593;28;20052;-49
2023/07/24 00:19:28;;;;;;;1.75;1.25;;;19.70;99.90;;;20.02;100.00;100015.94;5265459;28;20124;-49
2023/07/24 00:22:01;;;;;;;2.22;1.52;;;19.60;99.90;;;20.03;100.00;100016.81;5244408;28;20041;-49
2023/07/24 00:24:34;;;;;;;2.72;1.48;;;19.60;99.90;;;20.01;100.00;100005.38;5244744;28;20052;-49
2023/07/24 00:27:08;;;;;;;1.83;1.23;;;19.60;99.90;;;19.99;100.00;99999.25;5244746;28;20101;-48
2023/07/24 00:29:40;;;;;;;1.42;1.15;;;19.60;99.90;;;19.98;100.00;99992.22;5244763;28;20509;-49
2023/07/24 00:32:13;;;;;;;1.83;1.33;;;19.60;99.90;;;19.97;100.00;99988.69;5244434;28;20082;-49
2023/07/24 00:34:49;;;;;;;2.33;1.52;;;19.60;99.90;;;19.94;100.00;99986.09;5244379;28;20408;-49
2023/07/24 00:37:21;;;;;;;1.83;1.30;;;19.60;99.90;;;19.92;100.00;99984.38;5244648;28;20051;-49
2023/07/24 00:39:53;;;;;;;2.72;1.45;;;19.50;99.90;;;19.91;100.00;99995.84;5244021;28;20054;-48
2023/07/24 00:42:27;;;;;;;1.63;1.25;;;19.50;99.90;;;19.91;100.00;99995.84;5244151;28;20521;-49
2023/07/24 00:44:59;;;;;;;2.20;1.40;;;19.50;99.90;;;19.90;100.00;99996.75;5244139;28;20570;-48
2023/07/24 00:47:32;;;;;;;1.75;1.20;;;19.50;99.90;;;19.90;100.00;100000.28;5244134;28;20063;-49
2023/07/24 00:50:06;;;;;;;1.80;1.00;;;19.50;99.90;;;19.89;100.00;99998.53;5244074;28;20533;-49
2023/07/24 00:52:42;;;;;;;1.80;1.17;;;19.50;99.90;;;19.88;100.00;99985.31;5243962;28;20056;-50
2023/07/24 00:55:16;;;;;;;2.72;1.50;;;19.50;99.90;;;19.87;100.00;99978.28;5244118;28;20394;-49
2023/07/24 00:57:50;;;;;;;2.17;1.17;;;19.40;99.90;;;19.85;100.00;99988.00;5244180;28;20047;-49
2023/07/24 01:00:22;;;;;;;;;;;19.50;99.90;;;19.81;100.00;99978.38;5244369;28;20131;-49
2023/07/24 01:02:56;;;;;;;2.40;1.50;;;19.40;99.90;;;19.79;100.00;99979.28;5243860;28;19959;-48
2023/07/24 01:05:29;;;;;;;2.25;1.10;;;19.40;99.90;;;19.78;100.00;99980.19;5244329;28;20040;-50
2023/07/24 01:08:02;;;;;;;1.90;1.27;;;19.40;99.90;;;19.75;100.00;99974.91;5244835;28;20527;-50
2023/07/24 01:10:36;;;;;;;2.63;1.40;;;19.40;99.90;;;19.72;100.00;99967.06;5243675;28;20489;-50
2023/07/24 01:13:16;;;;;;;2.17;1.40;;;19.30;99.90;;;19.70;100.00;99960.94;5243603;28;20055;-49
2023/07/24 01:15:55;;;;;;;1.50;1.30;;;19.30;99.90;;;19.67;100.00;99955.66;5243701;28;20119;-49
2023/07/24 01:18:31;;;;;;;1.85;1.35;;;19.30;99.90;;;19.63;100.00;99948.69;5243731;28;20044;-50
2023/07/24 01:21:09;;;;;;;2.40;1.30;;;19.30;99.90;;;19.62;100.00;99951.34;5244394;28;20157;-50
2023/07/24 01:23:57;;;;;;;1.52;1.27;;;19.20;99.90;;;19.59;100.00;99949.63;5249511;28;20076;-49
2023/07/24 01:26:32;;;;;;;1.67;1.10;;;19.20;99.90;;;19.59;100.00;99941.69;5243673;28;20400;-49
2023/07/24 01:29:04;;;;;;;3.10;1.33;;;19.20;99.90;;;19.57;100.00;99934.66;5243190;28;20051;-49
2023/07/24 01:31:36;;;;;;;3.97;1.60;;;19.20;99.90;;;19.56;100.00;99932.91;5244562;28;20055;-49
2023/07/24 01:34:09;;;;;;;1.73;1.30;;;19.20;99.90;;;19.55;100.00;99934.66;5242967;28;20054;-48
2023/07/24 01:36:41;;;;;;;2.35;1.30;;;19.20;99.90;;;19.53;100.00;99932.06;5243089;28;20041;-49
2023/07/24 01:39:14;;;;;;;2.10;1.25;;;19.20;99.90;;;19.51;100.00;99922.41;5242971;28;20063;-49
2023/07/24 01:41:48;;;;;;;2.20;1.33;;;19.10;99.90;;;19.51;100.00;99927.72;5243093;28;20064;-49
2023/07/24 01:44:21;;;;;;;1.77;1.23;;;19.10;99.90;;;19.50;100.00;99918.91;5243019;28;20041;-49
2023/07/24 01:46:56;;;;;;;1.83;1.30;;;19.10;99.90;;;19.51;100.00;99912.72;5242901;28;20119;-50
2023/07/24 01:49:29;;;;;;;2.72;1.40;;;19.10;99.90;;;19.53;100.00;99925.91;5243125;28;20044;-50
2023/07/24 01:52:01;;;;;;;2.03;1.50;;;19.20;99.90;;;19.56;100.00;99919.69;5242699;28;20409;-49
2023/07/24 01:54:34;;;;;;;2.67;1.20;;;19.20;99.90;;;19.57;100.00;99921.47;5242144;28;20072;-52
2023/07/24 01:57:08;;;;;;;2.67;1.55;;;19.20;99.90;;;19.60;100.00;99924.94;5242210;28;20044;-53
2023/07/24 01:59:40;;;;;;;1.88;1.38;;;19.20;99.90;;;19.62;100.00;99917.84;5255397;28;20040;-52
2023/07/24 02:02:12;;;;;;;2.17;1.35;;;19.20;99.90;;;19.66;100.00;99923.97;5258210;28;20078;-51
2023/07/24 02:04:48;;;;;;;2.25;1.23;;;19.30;99.90;;;19.67;100.00;99918.66;5242210;28;20135;-50
2023/07/24 02:07:20;;;;;;;1.73;1.40;;;19.30;99.90;;;19.70;100.00;99923.91;5241888;28;20089;-50
2023/07/24 02:09:53;;;;;;;2.63;1.42;;;19.30;99.90;;;19.71;100.00;99915.06;5242117;28;20063;-50
2023/07/24 02:12:27;;;;;;;2.72;1.63;;;19.30;99.90;;;19.73;100.00;99918.56;5241344;28;20048;-50
2023/07/24 02:15:02;;;;;;;2.45;1.45;;;19.30;99.90;;;19.76;100.00;99920.31;5241942;28;20515;-50
2023/07/24 02:17:35;;;;;;;2.65;1.40;;;19.40;99.90;;;19.77;100.00;99914.97;5231076;28;20732;-50
2023/07/24 02:20:09;;;;;;;2.70;1.60;;;19.40;99.90;;;19.78;100.00;99911.44;5238470;28;20055;-50
2023/07/24 02:22:44;;;;;;;2.20;1.33;;;19.40;99.90;;;19.80;100.00;99914.03;5241649;28;20044;-52
2023/07/24 02:25:17;;;;;;;2.50;1.50;;;19.40;99.90;;;19.82;100.00;99898.13;5241550;28;20051;-50
2023/07/24 02:27:50;;;;;;;2.05;1.20;;;19.40;99.90;;;19.82;100.00;99900.78;5252559;28;20044;-51
2023/07/24 02:30:23;;;;;;;2.85;1.60;;;19.40;99.90;;;19.82;100.00;99908.72;5241435;28;20036;-49
2023/07/24 02:32:58;;;;;;;1.85;1.27;;;19.40;99.90;;;19.83;100.00;99915.78;5237454;28;20433;-53
2023/07/24 02:35:31;;;;;;;2.17;1.40;;;19.40;99.90;;;19.81;100.00;99914.91;5241362;28;20036;-51
2023/07/24 02:38:03;;;;;;;2.33;1.40;;;19.40;99.90;;;19.79;100.00;99899.94;5241526;28;20059;-50
2023/07/24 02:40:36;;;;;;;2.90;1.50;;;19.40;99.90;;;19.78;100.00;99885.00;5242042;28;20109;-51
2023/07/24 02:43:13;;;;;;;2.15;1.42;;;19.40;99.90;;;19.78;100.00;99882.34;5237864;28;20044;-50
2023/07/24 02:45:46;;;;;;;3.00;1.65;;;19.40;99.90;;;19.79;100.00;99877.94;5241871;28;20040;-53
2023/07/24 02:48:18;;;;;;;2.72;1.60;;;19.40;99.90;;;19.77;100.00;99880.59;5241525;28;20063;-51
2023/07/24 02:50:50;;;;;;;3.25;1.60;;;19.40;99.90;;;19.76;100.00;99876.22;5241292;28;20078;-51
2023/07/24 02:53:23;;;;;;;2.85;1.60;;;19.40;99.90;;;19.75;100.00;99869.16;5241093;28;20056;-50
2023/07/24 02:55:55;;;;;;;3.90;1.90;;;19.40;99.90;;;19.72;100.00;99863.94;5241668;28;20056;-49
2023/07/24 02:58:29;;;;;;;3.55;1.80;;;19.40;99.90;;;19.70;100.00;99860.47;5242646;28;20044;-49
2023/07/24 03:01:06;;;;;;;3.33;1.83;;;19.40;99.90;;;19.64;100.00;99850.00;5241290;28;20048;-49
2023/07/24 03:03:38;;;;;;;2.80;1.60;;;19.30;99.90;;;19.62;100.00;99848.25;5241140;28;20051;-52
2023/07/24 03:06:11;;;;;;;2.67;1.50;;;19.30;99.90;;;19.61;100.00;99849.16;5242765;28;20041;-51
2023/07/24 03:08:43;;;;;;;3.10;1.70;;;19.30;99.90;;;19.60;100.00;99843.00;5241644;28;20045;-50
2023/07/24 03:11:16;;;;;;;2.72;1.50;;;19.30;99.90;;;19.60;100.00;99840.34;5241226;28;20055;-50
2023/07/24 03:13:49;;;;;;;3.25;1.65;;;19.20;99.90;;;19.58;100.00;99838.66;5240952;28;20040;-50
2023/07/24 03:16:22;;;;;;;4.75;1.50;;;19.30;99.90;;;19.58;100.00;99838.66;5249529;28;20580;-50
2023/07/24 03:18:54;;;;;;;2.92;1.50;;;19.20;99.90;;;19.57;100.00;99829.81;5241276;28;20051;-50
2023/07/24 03:21:26;;;;;;;2.92;1.63;;;19.30;99.90;;;19.57;100.00;99827.16;5240887;28;20044;-50
2023/07/24 03:23:59;;;;;;;2.20;1.55;;;19.30;99.90;;;19.57;100.00;99836.88;5241773;28;20048;-50
2023/07/24 03:26:31;;;;;;;2.45;1.40;;;19.20;99.90;;;19.55;100.00;99823.66;5241411;28;20040;-52
2023/07/24 03:29:08;;;;;;;2.88;1.70;;;19.20;99.90;;;19.54;100.00;99821.91;5241280;28;20052;-51
2023/07/24 03:31:41;;;;;;;2.58;1.75;;;19.20;99.90;;;19.52;100.00;99821.09;5233424;28;20373;-50
2023/07/24 03:34:13;;;;;;;3.28;1.77;;;19.20;99.90;;;19.54;100.00;99816.63;5249051;28;20152;-50
2023/07/24 03:36:45;;;;;;;2.50;1.42;;;19.20;99.90;;;19.53;100.00;99822.81;5250871;28;20807;-49
2023/07/24 03:39:18;;;;;;;3.28;1.90;;;19.20;99.90;;;19.54;100.00;99814.00;5240915;28;20079;-52
2023/07/24 03:41:50;;;;;;;2.70;1.40;;;19.20;99.90;;;19.53;100.00;99805.19;5244304;28;20036;-51
2023/07/24 03:44:24;;;;;;;3.13;1.80;;;19.20;99.90;;;19.53;100.00;99810.47;5244749;28;20063;-52
2023/07/24 03:47:00;;;;;;;2.08;1.17;;;19.20;99.90;;;19.52;100.00;99819.31;5245102;28;20804;-50
2023/07/24 03:49:32;;;;;;;2.60;1.50;;;19.20;99.90;;;19.50;100.00;99830.81;5243895;28;20048;-52
2023/07/24 03:52:06;;;;;;;3.33;1.40;;;19.20;99.90;;;19.49;100.00;99824.63;5256810;28;20066;-50
2023/07/24 03:54:39;;;;;;;2.65;1.60;;;19.20;99.90;;;19.51;100.00;99811.41;5236718;28;20032;-53
2023/07/24 03:57:14;;;;;;;3.35;1.70;;;19.20;99.90;;;19.52;100.00;99814.03;5244616;28;20056;-50
2023/07/24 03:59:48;;;;;;;3.65;2.00;;;19.20;99.90;;;19.56;100.00;99808.66;5240394;28;20041;-51
2023/07/24 04:02:20;;;;;;;2.45;1.27;;;19.20;99.90;;;19.59;100.00;99803.38;5241460;28;20052;-52
2023/07/24 04:04:56;;;;;;;3.15;1.67;;;19.20;99.90;;;19.60;100.00;99819.22;5240905;28;20120;-52
2023/07/24 04:07:28;;;;;;;2.83;1.77;;;19.20;99.90;;;19.60;100.00;99810.41;5243140;28;20053;-50
2023/07/24 04:10:01;;;;;;;2.53;1.50;;;19.20;99.90;;;19.60;100.00;99811.28;5246024;28;20544;-50
2023/07/24 04:12:33;;;;;;;3.28;1.80;;;19.20;99.90;;;19.60;100.00;99799.84;5243713;28;20036;-53
2023/07/24 04:15:08;;;;;;;2.53;1.50;;;19.20;99.90;;;19.60;100.00;99800.69;5244702;28;20052;-50
2023/07/24 04:17:41;;;;;;;2.97;1.60;;;19.30;99.90;;;19.60;100.00;99803.34;5232689;28;20505;-51
2023/07/24 04:20:13;;;;;;;2.95;2.00;;;19.30;99.90;;;19.61;100.00;99806.84;5240855;28;20053;-52
2023/07/24 04:22:46;;;;;;;3.00;1.60;;;19.20;99.90;;;19.62;100.00;99809.47;5244823;28;20406;-50
2023/07/24 04:25:21;;;;;;;2.97;1.70;;;19.20;99.90;;;19.64;100.00;99807.69;5243843;28;20040;-51
2023/07/24 04:27:54;;;;;;;4.25;1.55;;;19.30;99.90;;;19.64;100.00;99815.63;5243779;28;20048;-51
2023/07/24 04:30:27;;;;;;;2.92;1.83;;;19.30;99.90;;;19.66;100.00;99819.09;5249818;28;20075;-51
2023/07/24 04:33:00;;;;;;;4.82;2.00;;;19.30;99.90;;;19.70;100.00;99825.22;5243114;28;20059;-51
2023/07/24 04:35:32;;;;;;;3.83;1.70;;;19.30;99.90;;;19.73;100.00;99828.66;5243567;28;20071;-51
2023/07/24 04:38:05;;;;;;;4.10;1.95;;;19.40;99.90;;;19.76;100.00;99818.06;5247366;28;20052;-52
2023/07/24 04:40:37;;;;;;;3.05;1.85;;;19.40;99.90;;;19.77;100.00;99825.06;5242906;28;20044;-51
2023/07/24 04:43:13;;;;;;;2.92;1.65;;;19.40;99.90;;;19.81;100.00;99835.59;5243177;28;20044;-51
2023/07/24 04:45:46;;;;;;;4.22;1.80;;;19.40;99.90;;;19.83;100.00;99828.53;5252808;28;20040;-50
2023/07/24 04:48:19;;;;;;;3.53;2.10;;;19.40;99.90;;;19.85;100.00;99822.28;5256563;28;20044;-51
2023/07/24 04:50:55;;;;;;;4.28;1.92;;;19.50;99.90;;;19.86;100.00;99820.50;5244720;28;20106;-51
2023/07/24 04:53:27;;;;;;;4.88;2.10;;;19.50;99.90;;;19.86;100.00;99837.25;5242230;28;20056;-50
2023/07/24 04:56:00;;;;;;;5.57;2.10;;;19.50;99.90;;;19.91;100.00;99858.34;5243192;28;20068;-51
2023/07/24 04:58:32;;;;;;;3.42;2.10;;;19.60;99.90;;;19.93;100.00;99865.31;5243077;28;20079;-51
2023/07/24 05:01:06;;;;;;;3.63;1.67;;;19.60;99.90;;;19.95;100.00;99850.31;5242912;28;20060;-53
2023/07/24 05:03:38;;;;;;;5.80;2.25;;;19.60;99.90;;;19.96;100.00;99845.91;5250049;28;20036;-51
2023/07/24 05:06:11;;;;;;;4.05;2.00;;;19.60;99.90;;;19.97;100.00;99852.94;5243218;28;20045;-51
2023/07/24 05:08:43;;;;;;;3.42;1.98;;;19.60;99.90;;;20.00;100.00;99855.50;5242980;28;20040;-51
2023/07/24 05:11:15;;;;;;;3.83;1.90;;;19.60;99.90;;;20.02;100.00;99857.25;5242860;28;20114;-52
2023/07/24 05:13:51;;;;;;;3.42;1.90;;;19.70;99.90;;;20.05;100.00;99848.38;5242484;28;20505;-52
2023/07/24 05:16:25;;;;;;;4.88;2.20;;;19.70;99.90;;;20.09;100.00;99852.72;5242750;28;20052;-51
2023/07/24 05:18:57;;;;;;;3.13;1.63;;;19.70;99.90;;;20.14;100.00;99865.81;5244883;28;20058;-51
2023/07/24 05:21:30;;;;;;;3.67;2.10;;;19.70;99.90;;;20.25;100.00;99862.06;5241939;28;20052;-52
2023/07/24 05:24:02;;;;;;;4.80;1.88;;;19.80;99.90;;;20.39;100.00;99853.00;5242782;28;20049;-52
2023/07/24 05:26:35;;;;;;;4.97;2.10;;;19.90;99.90;;;20.46;100.00;99852.88;5241223;28;20059;-51
2023/07/24 05:29:07;;;;;;;4.78;2.10;;;20.00;99.90;;;20.50;100.00;99849.25;5250968;28;20045;-51
2023/07/24 05:31:41;;;;;;;4.97;2.13;;;20.00;99.90;;;20.52;100.00;99852.75;5257434;28;20105;-51
2023/07/24 05:34:13;;;;;;;5.00;2.35;;;20.10;99.90;;;20.67;100.00;99862.16;5246560;28;20060;-51
2023/07/24 05:36:45;;;;;;;6.28;2.47;;;20.20;99.90;;;20.86;100.00;99862.59;5242324;28;20033;-52
2023/07/24 05:39:18;;;;;;;5.40;2.15;;;20.40;99.90;;;21.02;100.00;99861.38;5242440;28;20049;-49
2023/07/24 05:41:50;;;;;;;5.97;2.63;;;20.50;99.90;;;21.20;100.00;99861.88;5242116;28;20041;-53
2023/07/24 05:44:22;;;;;;;3.42;2.00;;;20.70;99.90;;;21.31;100.00;99873.97;5242130;28;20048;-50
2023/07/24 05:46:56;;;;;;;5.10;2.20;;;20.80;99.90;;;21.45;100.00;99862.16;5242484;28;20421;-51
2023/07/24 05:49:32;;;;;;;4.38;2.17;;;20.90;99.90;;;21.60;100.00;99872.41;5241914;28;20059;-52
2023/07/24 05:52:05;;;;;;;6.10;2.10;;;21.00;99.90;;;21.73;100.00;99878.28;5241783;28;20140;-50
2023/07/24 05:54:37;;;;;;;3.88;2.00;;;21.10;99.90;;;21.78;100.00;99882.56;5250034;28;20049;-50
2023/07/24 05:57:12;;;;;;;3.78;2.05;;;21.20;99.90;;;21.75;100.00;99887.06;5242151;28;20045;-52
2023/07/24 05:59:45;;;;;;;4.72;2.30;;;21.20;99.90;;;21.68;100.00;99881.03;5241562;28;20539;-51
2023/07/24 06:02:19;;;;;;;4.30;2.10;;;21.20;99.90;;;21.68;100.00;99884.56;5249499;28;20066;-50
2023/07/24 06:04:51;;;;;;;4.05;2.00;;;21.20;99.90;;;21.64;100.00;99885.53;5234350;28;20040;-50
2023/07/24 06:07:27;;;;;;;4.25;2.38;;;21.10;99.90;;;21.63;100.00;99882.94;5242167;28;20040;-50
2023/07/24 06:09:59;;;;;;;4.10;2.15;;;21.10;99.90;;;21.59;100.00;99892.75;5242021;28;20394;-52
2023/07/24 06:12:31;;;;;;;5.05;1.95;;;21.10;99.90;;;21.57;100.00;99889.25;5241034;28;20052;-51
2023/07/24 06:15:05;;;;;;;4.00;2.08;;;21.10;99.90;;;21.56;100.00;99895.47;5252592;28;20044;-51
2023/07/24 06:17:38;;;;;;;6.00;2.00;;;21.10;99.90;;;21.52;100.00;99890.31;5241440;28;20090;-50
2023/07/24 06:20:11;;;;;;;6.15;2.15;;;21.10;99.90;;;21.52;100.00;99888.53;5244950;28;20501;-50
2023/07/24 06:22:44;;;;;;;3.67;1.90;;;21.00;99.90;;;21.55;100.00;99895.50;5240798;28;20412;-51
2023/07/24 06:25:16;;;;;;;3.92;1.95;;;21.00;99.90;;;21.62;100.00;99897.09;5241869;28;20040;-51
2023/07/24 06:27:48;;;;;;;4.35;2.15;;;21.10;99.90;;;21.71;100.00;99896.84;5241747;28;20090;-51
2023/07/24 06:30:21;;;;;;;4.43;2.00;;;21.20;99.90;;;21.87;100.00;99898.22;5241314;28;20044;-50
2023/07/24 06:32:55;;;;;;;4.13;2.03;;;21.30;99.90;;;22.01;100.00;99899.66;5241934;28;20037;-51
2023/07/24 06:35:27;;;;;;;3.55;2.03;;;21.40;99.90;;;22.03;100.00;99889.88;5241328;28;20106;-51
2023/07/24 06:37:59;;;;;;;5.88;2.13;;;21.50;99.90;;;22.01;100.00;99884.59;5241704;28;20052;-50
2023/07/24 06:40:32;;;;;;;5.10;2.63;;;21.50;99.90;;;21.96;100.00;99870.59;5241383;28;20508;-50
2023/07/24 06:43:04;;;;;;;4.47;2.17;;;21.50;99.90;;;21.91;100.00;99873.38;5242974;28;20052;-50
2023/07/24 06:45:37;;;;;;;4.85;2.38;;;21.40;99.90;;;21.88;100.00;99878.75;5241171;28;20036;-52
2023/07/24 06:48:10;;;;;;;3.08;1.75;;;21.40;99.90;;;21.84;100.00;99885.06;5246897;28;20048;-51
2023/07/24 06:50:43;;;;;;;4.07;2.05;;;21.40;99.90;;;21.79;100.00;99888.75;5256474;28;20108;-51
2023/07/24 06:53:15;;;;;;;3.95;1.85;;;21.30;99.90;;;21.73;100.00;99894.19;5240840;28;20044;-51
2023/07/24 06:55:48;;;;;;;3.08;1.73;;;21.30;99.90;;;21.67;100.00;99893.44;5241118;28;20048;-52
2023/07/24 06:58:20;;;;;;;4.18;1.70;;;21.20;99.90;;;21.68;100.00;99896.94;5242548;28;20070;-52
2023/07/24 07:00:53;;;;;;;3.17;1.88;;;21.20;99.90;;;21.68;100.00;99892.53;5235421;28;20657;-52
2023/07/24 07:03:30;;;;;;;3.63;1.90;;;21.20;99.90;;;21.72;100.00;99888.03;5240568;28;20045;-54
2023/07/24 07:06:02;;;;;;;4.93;2.17;;;21.30;99.90;;;21.76;100.00;99889.66;5241845;28;20415;-51
2023/07/24 07:08:35;;;;;;;4.40;2.33;;;21.30;99.90;;;21.78;100.00;99873.72;5240442;28;20048;-53
2023/07/24 07:11:07;;;;;;;3.10;1.65;;;21.30;99.90;;;21.82;100.00;99872.72;5235466;28;20060;-53
2023/07/24 07:13:42;;;;;;;5.18;2.22;;;21.30;99.90;;;21.91;100.00;99865.41;5238535;28;20409;-53
2023/07/24 07:16:16;;;;;;;4.05;2.17;;;21.40;99.90;;;21.99;100.00;99872.31;5237410;28;20053;-52
2023/07/24 07:18:50;;;;;;;2.85;1.75;;;21.50;99.90;;;22.08;100.00;99864.09;5256288;28;20055;-53
2023/07/24 07:21:22;;;;;;;4.18;1.52;;;21.50;99.90;;;22.16;100.00;99870.06;5241716;28;20057;-54
2023/07/24 07:23:55;;;;;;;3.38;1.98;;;21.60;99.90;;;22.21;100.00;99870.84;5237296;28;20072;-51
2023/07/24 07:26:29;;;;;;;3.78;1.90;;;21.70;99.90;;;22.27;100.00;99873.31;5240798;28;20067;-52
2023/07/24 07:29:01;;;;;;;4.97;2.47;;;21.70;99.90;;;22.34;100.00;99877.53;5242750;28;20080;-53
2023/07/24 07:31:34;;;;;;;3.17;1.77;;;21.80;99.90;;;22.40;100.00;99871.19;5257511;28;20053;-51
2023/07/24 07:34:07;;;;;;;3.00;1.80;;;21.80;99.90;;;22.44;100.00;99867.56;5241867;28;20049;-55
2023/07/24 07:36:40;;;;;;;3.63;1.90;;;21.90;99.90;;;22.45;100.00;99859.53;5243242;28;20509;-53
2023/07/24 07:39:12;;;;;;;4.05;2.28;;;21.90;99.90;;;22.43;100.00;99856.06;5239446;28;20056;-54
2023/07/24 07:41:45;;;;;;;3.50;2.00;;;21.90;99.90;;;22.43;100.00;99842.78;5241169;28;20397;-53
2023/07/24 07:44:17;;;;;;;3.50;1.75;;;21.90;99.90;;;22.42;100.00;99845.47;5244204;28;20044;-53
2023/07/24 07:46:49;;;;;;;3.40;1.50;;;21.90;99.90;;;22.41;100.00;99849.91;5244709;28;20028;-53
2023/07/24 07:49:26;;;;;;;2.72;1.52;;;21.90;99.90;;;22.40;100.00;99834.91;5248739;28;20048;-53
2023/07/24 07:51:58;;;;;;;3.67;1.90;;;21.80;99.90;;;22.43;100.00;99833.91;5236689;28;20067;-52
2023/07/24 07:54:31;;;;;;;4.07;1.85;;;21.90;99.90;;;22.42;100.00;99838.38;5249406;28;20052;-55
2023/07/24 07:57:05;;;;;;;2.75;1.63;;;21.90;99.90;;;22.44;100.00;99833.03;5244992;28;20064;-52
2023/07/24 07:59:38;;;;;;;3.85;1.90;;;21.90;99.90;;;22.43;100.00;99833.91;5244871;28;20080;-52
2023/07/24 08:02:10;;;;;;;4.05;1.92;;;21.90;99.90;;;22.45;100.00;99837.44;5244801;28;20055;-52
2023/07/24 08:04:44;;;;;;;3.22;1.77;;;21.90;99.90;;;22.51;100.00;99847.00;5249296;28;20517;-52
2023/07/24 08:07:16;;;;;;;3.90;1.70;;;22.00;99.90;;;22.62;100.00;99832.47;5244823;28;20036;-52
2023/07/24 08:09:49;;;;;;;2.90;1.90;;;22.00;99.90;;;22.81;100.00;99838.09;5244291;28;20052;-52
2023/07/24 08:12:21;;;;;;;3.00;1.83;;;22.10;99.90;;;22.97;100.00;99830.59;5244349;28;20054;-52
2023/07/24 08:14:53;;;;;;;3.33;1.85;;;22.30;99.90;;;23.11;100.00;99838.97;5242479;28;20846;-53
2023/07/24 08:17:26;;;;;;;3.97;1.98;;;22.40;99.90;;;23.30;100.00;99839.28;5242542;28;20071;-55
2023/07/24 08:19:59;;;;;;;2.88;2.08;;;22.50;99.90;;;23.39;100.00;99848.72;5242704;28;20442;-53
2023/07/24 08:22:32;;;;;;;3.70;1.80;;;22.60;99.90;;;23.36;100.00;99847.03;5242261;28;20068;-54
2023/07/24 08:25:05;;;;;;;3.30;1.90;;;22.70;99.90;;;23.31;100.00;99850.78;5243110;28;20052;-53
2023/07/24 08:27:37;;;;;;;3.40;1.85;;;22.70;99.90;;;23.25;100.00;99841.19;5241600;28;20051;-52
2023/07/24 08:30:11;;;;;;;3.42;1.88;;;22.60;99.90;;;23.20;100.00;99837.81;5243492;28;20048;-52
2023/07/24 08:32:43;;;;;;;4.32;2.38;;;22.60;99.90;;;23.15;100.00;99837.97;5244095;28;20405;-52
2023/07/24 08:35:17;;;;;;;3.83;1.88;;;22.60;99.90;;;23.19;100.00;99836.94;5244190;28;20056;-52
2023/07/24 08:37:50;;;;;;;3.17;1.80;;;22.60;99.90;;;23.32;100.00;99821.47;5243731;28;20036;-52
2023/07/24 08:40:22;;;;;;;3.97;1.85;;;22.60;99.90;;;23.52;99.79;99819.00;5243733;28;20052;-54
2023/07/24 08:42:55;;;;;;;3.10;2.10;;;22.80;99.90;;;23.68;99.06;99806.09;5243200;28;20722;-53
2023/07/24 08:45:31;;;;;;;3.80;2.00;;;22.80;99.90;;;24.56;98.19;99796.69;5243907;28;20454;-53
2023/07/24 08:48:04;;;;;;;4.38;2.10;;;23.30;99.90;;;26.37;91.38;99786.47;5248933;28;20045;-53
2023/07/24 08:50:38;;;;;;;3.65;1.75;;;24.20;99.90;;;27.33;84.49;99805.09;5256996;28;20049;-53
2023/07/24 08:53:11;;;;;;;3.08;1.98;;;25.10;99.90;;;27.26;83.58;99800.06;5251801;28;20041;-53
2023/07/24 08:55:43;;;;;;;3.70;2.05;;;25.40;98.90;;;26.85;83.79;99804.69;5244196;28;20051;-53
2023/07/24 08:58:16;;;;;;;2.65;1.70;;;25.30;98.30;;;26.32;85.66;99797.34;5244047;28;20051;-50
2023/07/24 09:00:48;;;;;;;3.92;1.70;;;25.10;98.40;;;25.90;86.83;99798.34;5243901;28;20555;-51
2023/07/24 09:03:21;;;;;;;5.82;1.90;;;24.90;98.50;;;25.58;87.81;99802.38;5243913;28;20123;-51
2023/07/24 09:05:55;;;;;;;3.13;1.60;;;24.60;98.60;;;25.33;88.46;99807.00;5242754;28;20040;-49
2023/07/24 09:08:32;;;;;;;3.28;1.77;;;24.40;98.70;;;25.14;88.83;99807.75;5243915;28;20052;-52
2023/07/24 09:11:06;;;;;;;2.90;1.70;;;24.30;98.70;;;25.00;89.54;99818.06;5235300;28;20041;-53
2023/07/24 09:13:43;;;;;;;3.25;1.92;;;24.20;99.20;;;24.84;88.54;99819.59;5237847;28;20063;-52
2023/07/24 09:16:26;;;;;;;3.47;1.70;;;24.10;98.50;;;24.68;88.93;99810.47;5238396;28;20048;-52
2023/07/24 09:18:58;;;;;;;3.25;2.10;;;23.90;98.50;;;24.55;89.08;99804.75;5236310;28;20041;-53
2023/07/24 09:21:33;;;;;;;3.92;1.88;;;23.80;98.50;;;24.38;90.20;99793.84;5240055;28;20045;-53
2023/07/24 09:24:16;;;;;;;2.40;1.50;;;23.70;98.80;;;24.27;91.11;99786.25;5250968;28;20516;-52
2023/07/24 09:26:50;;;;;;;3.25;1.90;;;23.60;99.10;;;24.21;91.67;99781.16;5256665;28;20053;-51
2023/07/24 09:29:22;;;;;;;;;;;23.50;99.30;;;24.14;92.33;99788.50;5244713;28;20086;-52
2023/07/24 09:31:54;;;;;;;5.65;1.70;;;23.50;99.50;;;24.09;93.03;99777.16;5241990;28;20515;-52
2023/07/24 09:34:27;;;;;;;3.83;1.73;;;23.50;99.70;;;24.01;93.23;99765.91;5242087;28;20091;-54
2023/07/24 09:37:01;;;;;;;2.92;1.58;;;23.40;99.80;;;23.96;93.61;99758.09;5241772;28;20428;-53
2023/07/24 09:39:36;;;;;;;3.22;1.70;;;23.30;99.90;;;23.94;94.56;99751.97;5241884;28;20044;-54
2023/07/24 09:42:08;;;;;;;3.47;1.50;;;23.30;99.90;;;23.96;94.84;99750.09;5241954;28;20067;-52
2023/07/24 09:44:41;;;;;;;2.58;1.75;;;23.30;99.90;;;23.97;95.08;99743.84;5247089;28;20055;-51
2023/07/24 09:47:13;;;;;;;3.83;1.80;;;23.30;99.90;;;24.01;94.89;99742.84;5242169;28;20045;-54
2023/07/24 09:49:49;;;;;;;3.42;1.80;;;23.30;99.90;;;24.03;94.69;99740.97;5247726;28;20094;-53
2023/07/24 09:52:25;;;;;;;3.60;1.77;;;23.40;99.90;;;23.98;94.83;99737.59;5252358;28;20045;-52
2023/07/24 09:55:06;;;;;;;3.58;1.60;;;23.30;99.90;;;23.88;94.82;99741.53;5241558;28;20050;-54
2023/07/24 09:57:42;;;;;;;3.88;1.80;;;23.30;99.90;;;23.78;95.07;99732.16;5240948;28;20693;-52
2023/07/24 10:00:15;;;;;;;3.45;1.48;;;23.20;99.90;;;23.72;95.50;99735.03;5241774;28;20048;-53
2023/07/24 10:02:49;;;;;;;4.30;1.63;;;23.10;99.90;;;23.66;95.79;99729.91;5241144;28;20090;-52
2023/07/24 10:05:21;;;;;;;3.38;1.63;;;23.10;99.90;;;23.60;96.07;99730.97;5242206;28;20505;-52
2023/07/24 10:07:59;;;;;;;2.88;1.70;;;23.10;99.90;;;23.64;96.43;99723.78;5241551;28;20074;-53
2023/07/24 10:10:32;;;;;;;2.45;1.35;;;23.00;99.90;;;23.68;96.33;99717.44;5240587;28;20047;-52
2023/07/24 10:13:05;;;;;;;3.90;1.90;;;23.10;99.90;;;23.76;96.50;99720.69;5257408;28;20041;-53
2023/07/24 10:15:38;;;;;;;7.60;2.88;;;23.10;99.90;;;23.83;96.29;99719.56;5239087;28;20088;-54
2023/07/24 10:18:11;;;;;;;5.55;2.15;;;23.20;99.90;;;23.88;96.20;99714.94;5238693;28;20074;-54
2023/07/24 10:20:43;;;;;;;3.85;1.70;;;23.20;99.90;;;23.89;94.99;99713.13;5240234;28;20040;-51
2023/07/24 10:23:19;;;;;;;3.45;1.73;;;23.20;99.90;;;23.97;95.39;99703.06;5250631;28;20537;-53
2023/07/24 10:25:52;;;;;;;3.55;2.03;;;23.30;99.90;;;24.23;94.66;99702.09;5240873;28;20459;-51
2023/07/24 10:28:33;;;;;;;3.75;1.70;;;23.40;99.90;;;24.59;93.97;99686.50;5244232;28;20041;-51
2023/07/24 10:31:08;;;;;;;2.83;1.60;;;23.70;99.90;;;25.04;92.39;99689.09;5242194;28;20049;-51
2023/07/24 10:33:46;;;;;;;2.72;1.50;;;24.00;99.90;;;25.42;89.19;99683.91;5245945;28;20049;-55
2023/07/24 10:36:22;;;;;;;3.30;2.13;;;24.40;98.90;;;25.84;87.64;99682.97;5235007;28;20444;-53
2023/07/24 10:38:58;;;;;;;3.00;1.73;;;24.70;98.40;;;26.13;85.76;99686.97;5238091;28;20098;-53